sensor_id;sensor_type;location;lat;lon;timestamp;pressure;altitude;pressure_sealevel;temperature;humidity
75401;BME280;63974;47.538;18.972;2023-12-04T00:02:43;101321.09;;;-3.80;90.02
75401;BME280;63974;47.538;18.972;2023-12-04T00:05:46;101322.59;;;-3.74;89.77
75401;BME280;63974;47.538;18.972;2023-12-04T00:08:48;101310.22;;;-3.83;90.32
75401;BME280;63974;47.538;18.972;2023-12-04T00:11:51;101309.72;;;-3.93;91.02
75401;BME280;63974;47.538;18.972;2023-12-04T00:14:55;101306.63;;;-4.01;90.88
75401;BME280;63974;47.538;18.972;2023-12-04T00:17:57;101301.66;;;-4.04;91.41
75401;BME280;63974;47.538;18.972;2023-12-04T00:21:00;101316.03;;;-4.04;90.74
75401;BME280;63974;47.538;18.972;2023-12-04T00:24:04;101311.13;;;-4.09;91.03
75401;BME280;63974;47.538;18.972;2023-12-04T00:27:07;101310.16;;;-4.05;91.27
75401;BME280;63974;47.538;18.972;2023-12-04T00:30:10;101313.56;;;-4.06;91.21
75401;BME280;63974;47.538;18.972;2023-12-04T00:33:13;101309.63;;;-4.14;91.48
75401;BME280;63974;47.538;18.972;2023-12-04T00:36:16;101307.09;;;-4.14;91.35
75401;BME280;63974;47.538;18.972;2023-12-04T00:39:18;101294.94;;;-4.29;91.46
75401;BME280;63974;47.538;18.972;2023-12-04T00:42:21;101320.81;;;-4.20;92.16
75401;BME280;63974;47.538;18.972;2023-12-04T00:45:24;101324.91;;;-4.16;91.54
75401;BME280;63974;47.538;18.972;2023-12-04T00:48:27;101319.84;;;-4.16;91.67
75401;BME280;63974;47.538;18.972;2023-12-04T00:51:37;101320.59;;;-4.14;91.71
75401;BME280;63974;47.538;18.972;2023-12-04T00:54:40;101323.19;;;-4.15;91.64
75401;BME280;63974;47.538;18.972;2023-12-04T00:57:46;101317.03;;;-4.08;91.28
75401;BME280;63974;47.538;18.972;2023-12-04T01:00:48;101331.06;;;-3.98;90.87
75401;BME280;63974;47.538;18.972;2023-12-04T01:03:53;101328.63;;;-4.01;91.10
75401;BME280;63974;47.538;18.972;2023-12-04T01:06:56;101326.91;;;-4.01;90.29
75401;BME280;63974;47.538;18.972;2023-12-04T01:09:58;101324.38;;;-4.01;90.41
75401;BME280;63974;47.538;18.972;2023-12-04T01:13:01;101327.78;;;-4.02;90.56
75401;BME280;63974;47.538;18.972;2023-12-04T01:16:05;101337.22;;;-4.05;90.88
75401;BME280;63974;47.538;18.972;2023-12-04T01:19:07;101334.31;;;-4.19;91.25
75401;BME280;63974;47.538;18.972;2023-12-04T01:22:10;101328.97;;;-4.12;92.22
75401;BME280;63974;47.538;18.972;2023-12-04T01:25:13;101330.91;;;-4.18;92.07
75401;BME280;63974;47.538;18.972;2023-12-04T01:28:16;101331.75;;;-4.18;91.62
75401;BME280;63974;47.538;18.972;2023-12-04T01:31:19;101337.78;;;-4.22;92.33
75401;BME280;63974;47.538;18.972;2023-12-04T01:34:21;101339.38;;;-4.19;91.74
75401;BME280;63974;47.538;18.972;2023-12-04T01:37:24;101346.06;;;-4.17;91.00
75401;BME280;63974;47.538;18.972;2023-12-04T01:40:27;101329.75;;;-4.10;90.77
75401;BME280;63974;47.538;18.972;2023-12-04T01:43:29;101339.69;;;-4.04;90.23
75401;BME280;63974;47.538;18.972;2023-12-04T01:46:32;101344.63;;;-3.99;89.91
75401;BME280;63974;47.538;18.972;2023-12-04T01:49:35;101333.78;;;-4.04;90.17
75401;BME280;63974;47.538;18.972;2023-12-04T01:52:39;101322.38;;;-4.16;90.46
75401;BME280;63974;47.538;18.972;2023-12-04T01:55:42;101326.28;;;-4.07;90.59
75401;BME280;63974;47.538;18.972;2023-12-04T01:58:45;101334.81;;;-4.10;90.29
75401;BME280;63974;47.538;18.972;2023-12-04T02:01:48;101321.63;;;-4.19;90.05
75401;BME280;63974;47.538;18.972;2023-12-04T02:04:56;101336.56;;;-4.10;91.05
75401;BME280;63974;47.538;18.972;2023-12-04T02:08:00;101341.63;;;-4.10;90.74
75401;BME280;63974;47.538;18.972;2023-12-04T02:11:03;101335.38;;;-4.26;91.38
75401;BME280;63974;47.538;18.972;2023-12-04T02:14:08;101326.75;;;-4.21;91.03
75401;BME280;63974;47.538;18.972;2023-12-04T02:17:11;101318.19;;;-4.17;90.60
75401;BME280;63974;47.538;18.972;2023-12-04T02:20:16;101317.97;;;-4.11;90.48
75401;BME280;63974;47.538;18.972;2023-12-04T02:23:19;101319.41;;;-4.04;90.07
75401;BME280;63974;47.538;18.972;2023-12-04T02:26:28;101327.75;;;-4.00;89.74
75401;BME280;63974;47.538;18.972;2023-12-04T02:29:38;101316.63;;;-3.96;89.87
75401;BME280;63974;47.538;18.972;2023-12-04T02:32:47;101330.63;;;-4.11;89.56
75401;BME280;63974;47.538;18.972;2023-12-04T02:35:51;101326.44;;;-4.12;89.96
75401;BME280;63974;47.538;18.972;2023-12-04T02:38:55;101328.09;;;-4.11;90.20
75401;BME280;63974;47.538;18.972;2023-12-04T02:41:57;101334.00;;;-4.10;90.20
75401;BME280;63974;47.538;18.972;2023-12-04T02:45:00;101341.66;;;-4.12;90.40
75401;BME280;63974;47.538;18.972;2023-12-04T02:48:03;101347.25;;;-4.02;89.73
75401;BME280;63974;47.538;18.972;2023-12-04T02:51:06;101336.28;;;-4.03;89.48
75401;BME280;63974;47.538;18.972;2023-12-04T02:54:09;101343.75;;;-3.98;89.21
75401;BME280;63974;47.538;18.972;2023-12-04T02:57:12;101341.97;;;-3.96;89.36
75401;BME280;63974;47.538;18.972;2023-12-04T03:00:15;101342.00;;;-3.98;89.12
75401;BME280;63974;47.538;18.972;2023-12-04T03:03:18;101339.69;;;-4.04;89.62
75401;BME280;63974;47.538;18.972;2023-12-04T03:06:21;101337.00;;;-4.24;90.58
75401;BME280;63974;47.538;18.972;2023-12-04T03:09:23;101331.19;;;-4.27;90.84
75401;BME280;63974;47.538;18.972;2023-12-04T03:12:46;101323.78;;;-4.32;90.54
75401;BME280;63974;47.538;18.972;2023-12-04T03:15:49;101335.50;;;-4.29;91.40
75401;BME280;63974;47.538;18.972;2023-12-04T03:18:51;101333.84;;;-4.30;90.85
75401;BME280;63974;47.538;18.972;2023-12-04T03:21:54;101333.03;;;-4.31;91.30
75401;BME280;63974;47.538;18.972;2023-12-04T03:24:57;101323.81;;;-4.33;90.66
75401;BME280;63974;47.538;18.972;2023-12-04T03:27:59;101327.63;;;-4.22;90.95
75401;BME280;63974;47.538;18.972;2023-12-04T03:31:03;101340.44;;;-4.26;90.50
75401;BME280;63974;47.538;18.972;2023-12-04T03:34:05;101327.06;;;-4.30;90.37
75401;BME280;63974;47.538;18.972;2023-12-04T03:37:08;101333.03;;;-4.31;90.52
75401;BME280;63974;47.538;18.972;2023-12-04T03:40:11;101325.31;;;-4.28;90.54
75401;BME280;63974;47.538;18.972;2023-12-04T03:43:14;101322.94;;;-4.32;90.83
75401;BME280;63974;47.538;18.972;2023-12-04T03:46:17;101324.72;;;-4.36;90.55
75401;BME280;63974;47.538;18.972;2023-12-04T03:49:21;101333.09;;;-4.34;91.35
75401;BME280;63974;47.538;18.972;2023-12-04T03:52:24;101333.34;;;-4.41;91.33
75401;BME280;63974;47.538;18.972;2023-12-04T03:55:26;101322.09;;;-4.33;91.52
75401;BME280;63974;47.538;18.972;2023-12-04T03:58:29;101317.28;;;-4.40;91.30
75401;BME280;63974;47.538;18.972;2023-12-04T04:01:32;101313.94;;;-4.40;90.91
75401;BME280;63974;47.538;18.972;2023-12-04T04:04:34;101312.91;;;-4.35;91.07
75401;BME280;63974;47.538;18.972;2023-12-04T04:07:37;101309.59;;;-4.37;90.69
75401;BME280;63974;47.538;18.972;2023-12-04T04:10:40;101315.97;;;-4.51;90.85
75401;BME280;63974;47.538;18.972;2023-12-04T04:13:43;101319.56;;;-4.58;91.64
75401;BME280;63974;47.538;18.972;2023-12-04T04:16:45;101318.66;;;-4.56;92.06
75401;BME280;63974;47.538;18.972;2023-12-04T04:19:48;101319.88;;;-4.67;91.49
75401;BME280;63974;47.538;18.972;2023-12-04T04:22:51;101322.63;;;-4.75;91.42
75401;BME280;63974;47.538;18.972;2023-12-04T04:25:54;101321.72;;;-4.72;91.59
75401;BME280;63974;47.538;18.972;2023-12-04T04:28:57;101324.53;;;-4.81;92.20
75401;BME280;63974;47.538;18.972;2023-12-04T04:32:00;101318.34;;;-4.99;93.20
75401;BME280;63974;47.538;18.972;2023-12-04T04:35:03;101325.47;;;-4.84;92.84
75401;BME280;63974;47.538;18.972;2023-12-04T04:38:06;101325.75;;;-4.93;92.46
75401;BME280;63974;47.538;18.972;2023-12-04T04:41:15;101325.34;;;-5.07;93.80
75401;BME280;63974;47.538;18.972;2023-12-04T04:44:18;101327.50;;;-4.95;93.24
75401;BME280;63974;47.538;18.972;2023-12-04T04:47:21;101326.53;;;-4.91;92.76
75401;BME280;63974;47.538;18.972;2023-12-04T04:50:24;101324.59;;;-4.83;92.56
75401;BME280;63974;47.538;18.972;2023-12-04T04:53:26;101320.38;;;-5.10;93.12
75401;BME280;63974;47.538;18.972;2023-12-04T04:56:29;101338.13;;;-5.11;93.24
75401;BME280;63974;47.538;18.972;2023-12-04T04:59:32;101340.13;;;-5.21;93.69
75401;BME280;63974;47.538;18.972;2023-12-04T05:02:35;101336.72;;;-5.20;93.75
75401;BME280;63974;47.538;18.972;2023-12-04T05:05:38;101333.97;;;-5.12;93.37
75401;BME280;63974;47.538;18.972;2023-12-04T05:08:40;101334.69;;;-5.09;93.31
75401;BME280;63974;47.538;18.972;2023-12-04T05:11:43;101339.44;;;-4.98;92.76
75401;BME280;63974;47.538;18.972;2023-12-04T05:14:46;101338.13;;;-5.11;93.47
75401;BME280;63974;47.538;18.972;2023-12-04T05:17:48;101337.66;;;-5.24;93.82
75401;BME280;63974;47.538;18.972;2023-12-04T05:20:51;101340.91;;;-5.19;94.19
75401;BME280;63974;47.538;18.972;2023-12-04T05:23:54;101339.69;;;-5.07;94.21
75401;BME280;63974;47.538;18.972;2023-12-04T05:26:57;101338.19;;;-5.13;93.88
75401;BME280;63974;47.538;18.972;2023-12-04T05:29:59;101334.09;;;-5.17;93.99
75401;BME280;63974;47.538;18.972;2023-12-04T05:33:02;101321.75;;;-5.27;93.98
75401;BME280;63974;47.538;18.972;2023-12-04T05:36:05;101315.31;;;-5.10;94.68
75401;BME280;63974;47.538;18.972;2023-12-04T05:39:09;101320.78;;;-4.96;94.37
75401;BME280;63974;47.538;18.972;2023-12-04T05:42:11;101325.66;;;-4.90;94.14
75401;BME280;63974;47.538;18.972;2023-12-04T05:45:14;101327.16;;;-4.84;94.77
75401;BME280;63974;47.538;18.972;2023-12-04T05:48:17;101326.81;;;-5.00;93.32
75401;BME280;63974;47.538;18.972;2023-12-04T05:51:20;101319.53;;;-5.10;93.35
75401;BME280;63974;47.538;18.972;2023-12-04T05:54:22;101321.53;;;-5.20;93.57
75401;BME280;63974;47.538;18.972;2023-12-04T05:57:25;101321.56;;;-5.21;94.37
75401;BME280;63974;47.538;18.972;2023-12-04T06:00:28;101330.78;;;-5.19;93.61
75401;BME280;63974;47.538;18.972;2023-12-04T06:03:31;101334.19;;;-5.20;94.17
75401;BME280;63974;47.538;18.972;2023-12-04T06:06:33;101338.75;;;-5.03;94.58
75401;BME280;63974;47.538;18.972;2023-12-04T06:09:36;101342.00;;;-5.00;93.82
75401;BME280;63974;47.538;18.972;2023-12-04T06:12:39;101330.22;;;-5.57;94.09
75401;BME280;63974;47.538;18.972;2023-12-04T06:15:43;101349.19;;;-5.43;95.05
75401;BME280;63974;47.538;18.972;2023-12-04T06:18:46;101338.63;;;-5.28;94.95
75401;BME280;63974;47.538;18.972;2023-12-04T06:21:49;101336.53;;;-5.14;94.35
75401;BME280;63974;47.538;18.972;2023-12-04T06:24:52;101315.69;;;-5.22;94.23
75401;BME280;63974;47.538;18.972;2023-12-04T06:27:55;101333.75;;;-5.34;93.38
75401;BME280;63974;47.538;18.972;2023-12-04T06:30:58;101349.09;;;-5.40;93.99
75401;BME280;63974;47.538;18.972;2023-12-04T06:34:01;101344.81;;;-5.38;94.38
75401;BME280;63974;47.538;18.972;2023-12-04T06:37:09;101353.78;;;-5.26;94.27
75401;BME280;63974;47.538;18.972;2023-12-04T06:40:12;101355.00;;;-5.12;93.38
75401;BME280;63974;47.538;18.972;2023-12-04T06:43:16;101352.78;;;-4.93;93.63
75401;BME280;63974;47.538;18.972;2023-12-04T06:46:23;101354.75;;;-4.75;93.72
75401;BME280;63974;47.538;18.972;2023-12-04T06:49:30;101359.41;;;-4.89;92.72
75401;BME280;63974;47.538;18.972;2023-12-04T06:52:33;101359.53;;;-4.92;93.15
75401;BME280;63974;47.538;18.972;2023-12-04T06:55:36;101369.53;;;-4.89;92.31
75401;BME280;63974;47.538;18.972;2023-12-04T06:58:39;101361.84;;;-4.86;92.12
75401;BME280;63974;47.538;18.972;2023-12-04T07:01:41;101367.94;;;-4.66;92.62
75401;BME280;63974;47.538;18.972;2023-12-04T07:04:45;101363.09;;;-4.46;92.94
75401;BME280;63974;47.538;18.972;2023-12-04T07:07:48;101352.44;;;-4.30;92.58
75401;BME280;63974;47.538;18.972;2023-12-04T07:10:51;101360.19;;;-4.10;92.40
75401;BME280;63974;47.538;18.972;2023-12-04T07:13:53;101359.84;;;-3.99;91.49
75401;BME280;63974;47.538;18.972;2023-12-04T07:16:56;101362.63;;;-4.07;92.53
75401;BME280;63974;47.538;18.972;2023-12-04T07:19:59;101365.09;;;-4.05;91.75
75401;BME280;63974;47.538;18.972;2023-12-04T07:23:01;101369.91;;;-3.98;92.96
75401;BME280;63974;47.538;18.972;2023-12-04T07:26:04;101367.84;;;-3.87;91.75
75401;BME280;63974;47.538;18.972;2023-12-04T07:29:09;101367.41;;;-3.75;91.80
75401;BME280;63974;47.538;18.972;2023-12-04T07:32:12;101372.69;;;-3.56;91.64
75401;BME280;63974;47.538;18.972;2023-12-04T07:35:14;101370.47;;;-3.42;90.49
75401;BME280;63974;47.538;18.972;2023-12-04T07:38:17;101377.38;;;-3.23;91.25
75401;BME280;63974;47.538;18.972;2023-12-04T07:41:20;101379.06;;;-3.22;90.80
75401;BME280;63974;47.538;18.972;2023-12-04T07:44:24;101375.44;;;-3.16;91.72
75401;BME280;63974;47.538;18.972;2023-12-04T07:47:27;101364.75;;;-3.24;91.04
75401;BME280;63974;47.538;18.972;2023-12-04T07:50:29;101376.69;;;-3.05;90.87
75401;BME280;63974;47.538;18.972;2023-12-04T07:53:33;101378.22;;;-3.01;90.41
75401;BME280;63974;47.538;18.972;2023-12-04T07:56:36;101382.97;;;-2.92;89.95
75401;BME280;63974;47.538;18.972;2023-12-04T07:59:38;101373.19;;;-2.79;90.16
75401;BME280;63974;47.538;18.972;2023-12-04T08:02:41;101371.16;;;-2.71;90.50
75401;BME280;63974;47.538;18.972;2023-12-04T08:05:47;101378.84;;;-2.51;90.28
75401;BME280;63974;47.538;18.972;2023-12-04T08:08:50;101369.66;;;-2.34;91.94
75401;BME280;63974;47.538;18.972;2023-12-04T08:11:53;101374.16;;;-2.21;90.43
75401;BME280;63974;47.538;18.972;2023-12-04T08:14:59;101374.38;;;-2.05;90.90
75401;BME280;63974;47.538;18.972;2023-12-04T08:18:04;101375.66;;;-1.95;89.84
75401;BME280;63974;47.538;18.972;2023-12-04T08:21:07;101364.97;;;-1.83;89.92
75401;BME280;63974;47.538;18.972;2023-12-04T08:24:10;101372.22;;;-1.74;90.53
75401;BME280;63974;47.538;18.972;2023-12-04T08:27:13;101370.66;;;-1.78;88.71
75401;BME280;63974;47.538;18.972;2023-12-04T08:30:15;101374.00;;;-1.76;89.04
75401;BME280;63974;47.538;18.972;2023-12-04T08:33:18;101369.06;;;-1.61;90.13
75401;BME280;63974;47.538;18.972;2023-12-04T08:36:22;101379.81;;;-1.54;87.42
75401;BME280;63974;47.538;18.972;2023-12-04T08:39:25;101382.72;;;-1.43;86.18
75401;BME280;63974;47.538;18.972;2023-12-04T08:42:29;101380.53;;;-1.32;86.56
75401;BME280;63974;47.538;18.972;2023-12-04T08:45:32;101374.13;;;-1.22;85.30
75401;BME280;63974;47.538;18.972;2023-12-04T08:48:36;101376.19;;;-1.12;84.05
75401;BME280;63974;47.538;18.972;2023-12-04T08:51:39;101373.19;;;-1.01;84.84
75401;BME280;63974;47.538;18.972;2023-12-04T08:54:42;101366.19;;;-0.98;83.89
75401;BME280;63974;47.538;18.972;2023-12-04T08:58:00;101362.47;;;-0.91;82.25
75401;BME280;63974;47.538;18.972;2023-12-04T09:01:03;101359.22;;;-0.76;82.31
75401;BME280;63974;47.538;18.972;2023-12-04T09:04:09;101363.13;;;-0.69;81.96
75401;BME280;63974;47.538;18.972;2023-12-04T09:07:12;101358.09;;;-0.70;80.64
75401;BME280;63974;47.538;18.972;2023-12-04T09:10:35;101353.16;;;-0.56;80.81
75401;BME280;63974;47.538;18.972;2023-12-04T09:13:57;101358.59;;;-0.45;80.46
75401;BME280;63974;47.538;18.972;2023-12-04T09:17:00;101355.28;;;-0.47;78.96
75401;BME280;63974;47.538;18.972;2023-12-04T09:20:03;101351.69;;;-0.43;77.12
75401;BME280;63974;47.538;18.972;2023-12-04T09:23:09;101346.16;;;-0.34;77.89
75401;BME280;63974;47.538;18.972;2023-12-04T09:26:12;101337.31;;;-0.27;77.37
75401;BME280;63974;47.538;18.972;2023-12-04T09:29:15;101334.16;;;-0.15;79.03
75401;BME280;63974;47.538;18.972;2023-12-04T09:32:18;101334.38;;;-0.20;76.87
75401;BME280;63974;47.538;18.972;2023-12-04T09:35:21;101332.03;;;-0.24;75.81
75401;BME280;63974;47.538;18.972;2023-12-04T09:38:24;101319.75;;;-0.16;76.45
75401;BME280;63974;47.538;18.972;2023-12-04T09:41:26;101315.22;;;-0.11;76.07
75401;BME280;63974;47.538;18.972;2023-12-04T09:44:30;101316.56;;;-0.04;75.64
75401;BME280;63974;47.538;18.972;2023-12-04T09:47:33;101312.13;;;-0.01;75.10
75401;BME280;63974;47.538;18.972;2023-12-04T09:50:37;101301.44;;;0.08;nan
75401;BME280;63974;47.538;18.972;2023-12-04T09:53:41;101297.25;;;0.07;73.83
75401;BME280;63974;47.538;18.972;2023-12-04T09:56:44;101288.78;;;0.22;75.24
75401;BME280;63974;47.538;18.972;2023-12-04T09:59:47;101276.94;;;0.21;73.55
75401;BME280;63974;47.538;18.972;2023-12-04T10:02:51;101269.09;;;0.24;71.74
75401;BME280;63974;47.538;18.972;2023-12-04T10:05:54;101266.31;;;0.28;71.40
75401;BME280;63974;47.538;18.972;2023-12-04T10:08:57;101258.41;;;0.33;70.50
75401;BME280;63974;47.538;18.972;2023-12-04T10:12:01;101247.06;;;0.38;70.73
75401;BME280;63974;47.538;18.972;2023-12-04T10:15:09;101238.00;;;0.48;71.45
75401;BME280;63974;47.538;18.972;2023-12-04T10:18:29;101229.00;;;0.57;70.38
75401;BME280;63974;47.538;18.972;2023-12-04T10:21:35;101230.34;;;0.64;72.53
75401;BME280;63974;47.538;18.972;2023-12-04T10:24:38;101226.63;;;0.69;71.41
75401;BME280;63974;47.538;18.972;2023-12-04T10:27:41;101216.16;;;0.74;70.72
75401;BME280;63974;47.538;18.972;2023-12-04T10:30:45;101206.00;;;0.72;68.81
75401;BME280;63974;47.538;18.972;2023-12-04T10:33:48;101195.22;;;0.67;68.86
75401;BME280;63974;47.538;18.972;2023-12-04T10:36:52;101185.81;;;0.68;68.81
75401;BME280;63974;47.538;18.972;2023-12-04T10:39:55;101196.88;;;0.68;69.41
75401;BME280;63974;47.538;18.972;2023-12-04T10:43:14;101182.81;;;0.75;69.49
75401;BME280;63974;47.538;18.972;2023-12-04T10:46:18;101176.84;;;0.90;68.34
75401;BME280;63974;47.538;18.972;2023-12-04T10:49:21;101184.41;;;0.78;68.23
75401;BME280;63974;47.538;18.972;2023-12-04T10:52:24;101195.03;;;0.86;67.60
75401;BME280;63974;47.538;18.972;2023-12-04T10:55:27;101183.34;;;0.96;67.38
75401;BME280;63974;47.538;18.972;2023-12-04T10:58:31;101176.84;;;0.90;66.86
75401;BME280;63974;47.538;18.972;2023-12-04T11:01:34;101171.44;;;1.10;68.26
75401;BME280;63974;47.538;18.972;2023-12-04T11:04:38;101163.31;;;1.18;66.22
75401;BME280;63974;47.538;18.972;2023-12-04T11:07:44;101163.44;;;1.16;67.63
75401;BME280;63974;47.538;18.972;2023-12-04T11:11:13;101150.28;;;1.22;66.97
75401;BME280;63974;47.538;18.972;2023-12-04T11:14:20;101163.25;;;1.33;66.79
75401;BME280;63974;47.538;18.972;2023-12-04T11:17:25;101152.31;;;1.31;66.07
75401;BME280;63974;47.538;18.972;2023-12-04T11:20:32;101144.25;;;1.37;65.41
75401;BME280;63974;47.538;18.972;2023-12-04T11:23:38;101144.97;;;1.39;66.54
75401;BME280;63974;47.538;18.972;2023-12-04T11:26:43;101138.53;;;1.48;66.21
75401;BME280;63974;47.538;18.972;2023-12-04T11:29:47;101132.50;;;1.49;65.90
75401;BME280;63974;47.538;18.972;2023-12-04T11:32:50;101124.81;;;1.49;64.74
75401;BME280;63974;47.538;18.972;2023-12-04T11:36:08;101115.38;;;1.49;65.18
75401;BME280;63974;47.538;18.972;2023-12-04T11:39:15;101110.44;;;1.60;68.16
75401;BME280;63974;47.538;18.972;2023-12-04T11:42:24;101109.63;;;1.74;68.23
75401;BME280;63974;47.538;18.972;2023-12-04T11:45:31;101096.47;;;1.66;65.64
75401;BME280;63974;47.538;18.972;2023-12-04T11:48:37;101101.41;;;1.83;66.94
75401;BME280;63974;47.538;18.972;2023-12-04T11:58:08;101094.78;;;1.79;62.64
75401;BME280;63974;47.538;18.972;2023-12-04T12:01:11;101098.56;;;1.73;63.37
75401;BME280;63974;47.538;18.972;2023-12-04T12:04:14;101099.59;;;1.71;63.37
75401;BME280;63974;47.538;18.972;2023-12-04T12:07:20;101089.44;;;1.69;63.80
75401;BME280;63974;47.538;18.972;2023-12-04T12:10:23;101092.34;;;1.63;62.88
75401;BME280;63974;47.538;18.972;2023-12-04T12:13:25;101090.16;;;1.57;62.94
75401;BME280;63974;47.538;18.972;2023-12-04T12:16:31;101081.56;;;1.58;63.46
75401;BME280;63974;47.538;18.972;2023-12-04T12:19:34;101072.97;;;1.59;63.67
75401;BME280;63974;47.538;18.972;2023-12-04T12:22:38;101067.59;;;1.64;64.30
75401;BME280;63974;47.538;18.972;2023-12-04T12:25:43;101057.72;;;1.72;63.65
75401;BME280;63974;47.538;18.972;2023-12-04T12:28:46;101059.44;;;1.71;64.77
75401;BME280;63974;47.538;18.972;2023-12-04T12:31:50;101049.59;;;1.65;69.28
75401;BME280;63974;47.538;18.972;2023-12-04T12:34:53;101041.91;;;1.65;66.57
75401;BME280;63974;47.538;18.972;2023-12-04T12:37:58;101039.59;;;1.75;67.10
75401;BME280;63974;47.538;18.972;2023-12-04T12:41:01;101032.28;;;1.69;67.80
75401;BME280;63974;47.538;18.972;2023-12-04T12:44:03;101032.19;;;1.70;66.74
75401;BME280;63974;47.538;18.972;2023-12-04T12:47:07;101035.13;;;1.64;66.99
75401;BME280;63974;47.538;18.972;2023-12-04T12:50:10;101022.19;;;1.53;68.10
75401;BME280;63974;47.538;18.972;2023-12-04T12:53:14;101028.66;;;1.59;69.35
75401;BME280;63974;47.538;18.972;2023-12-04T12:56:17;101027.09;;;1.56;70.29
75401;BME280;63974;47.538;18.972;2023-12-04T12:59:20;101023.09;;;1.52;69.71
75401;BME280;63974;47.538;18.972;2023-12-04T13:02:23;101014.16;;;1.45;69.67
75401;BME280;63974;47.538;18.972;2023-12-04T13:05:27;101016.63;;;1.47;70.40
75401;BME280;63974;47.538;18.972;2023-12-04T13:08:30;101006.66;;;1.42;69.29
75401;BME280;63974;47.538;18.972;2023-12-04T13:11:33;101017.97;;;1.38;69.92
75401;BME280;63974;47.538;18.972;2023-12-04T13:14:35;100997.88;;;1.46;69.23
75401;BME280;63974;47.538;18.972;2023-12-04T13:17:39;101002.91;;;1.48;69.86
75401;BME280;63974;47.538;18.972;2023-12-04T13:20:42;100991.75;;;1.49;69.92
75401;BME280;63974;47.538;18.972;2023-12-04T13:23:45;100994.88;;;1.40;70.55
75401;BME280;63974;47.538;18.972;2023-12-04T13:26:48;100997.03;;;1.46;71.15
75401;BME280;63974;47.538;18.972;2023-12-04T13:29:51;100993.69;;;1.45;71.69
75401;BME280;63974;47.538;18.972;2023-12-04T13:32:53;100991.47;;;1.39;72.31
75401;BME280;63974;47.538;18.972;2023-12-04T13:35:57;100987.56;;;1.48;73.27
75401;BME280;63974;47.538;18.972;2023-12-04T13:39:00;100979.88;;;1.48;72.30
75401;BME280;63974;47.538;18.972;2023-12-04T13:42:03;100967.09;;;1.34;71.70
75401;BME280;63974;47.538;18.972;2023-12-04T13:45:24;100973.97;;;1.33;72.18
75401;BME280;63974;47.538;18.972;2023-12-04T13:48:26;100961.09;;;1.35;72.76
75401;BME280;63974;47.538;18.972;2023-12-04T13:51:29;100958.63;;;1.33;73.82
75401;BME280;63974;47.538;18.972;2023-12-04T13:54:33;100947.69;;;1.17;73.53
75401;BME280;63974;47.538;18.972;2023-12-04T13:57:50;100949.34;;;1.18;74.47
75401;BME280;63974;47.538;18.972;2023-12-04T14:01:13;100934.09;;;1.03;73.91
75401;BME280;63974;47.538;18.972;2023-12-04T14:04:18;100950.81;;;1.08;73.32
75401;BME280;63974;47.538;18.972;2023-12-04T14:07:21;100947.59;;;1.05;73.70
75401;BME280;63974;47.538;18.972;2023-12-04T14:10:25;100943.88;;;0.96;74.27
75401;BME280;63974;47.538;18.972;2023-12-04T14:13:31;100948.44;;;0.91;75.13
75401;BME280;63974;47.538;18.972;2023-12-04T14:16:34;100947.34;;;0.81;75.25
75401;BME280;63974;47.538;18.972;2023-12-04T14:19:38;100940.03;;;0.75;76.65
75401;BME280;63974;47.538;18.972;2023-12-04T14:22:42;100942.59;;;0.75;76.00
75401;BME280;63974;47.538;18.972;2023-12-04T14:25:46;100945.06;;;0.77;75.93
75401;BME280;63974;47.538;18.972;2023-12-04T14:28:49;100937.13;;;0.67;76.92
75401;BME280;63974;47.538;18.972;2023-12-04T14:31:52;100951.63;;;0.67;77.21
75401;BME280;63974;47.538;18.972;2023-12-04T14:34:54;100957.00;;;0.62;77.44
75401;BME280;63974;47.538;18.972;2023-12-04T14:37:57;100950.53;;;0.57;78.08
75401;BME280;63974;47.538;18.972;2023-12-04T14:41:01;100943.31;;;0.49;78.16
75401;BME280;63974;47.538;18.972;2023-12-04T14:44:03;100937.66;;;0.44;78.56
75401;BME280;63974;47.538;18.972;2023-12-04T14:47:06;100936.09;;;0.42;78.89
75401;BME280;63974;47.538;18.972;2023-12-04T14:50:11;100938.00;;;0.38;78.54
75401;BME280;63974;47.538;18.972;2023-12-04T14:53:14;100927.91;;;0.37;78.51
75401;BME280;63974;47.538;18.972;2023-12-04T14:56:31;100926.31;;;0.34;79.20
75401;BME280;63974;47.538;18.972;2023-12-04T14:59:53;100911.34;;;0.28;78.99
75401;BME280;63974;47.538;18.972;2023-12-04T15:02:59;100905.50;;;0.26;78.17
75401;BME280;63974;47.538;18.972;2023-12-04T15:06:20;100911.91;;;0.19;78.09
75401;BME280;63974;47.538;18.972;2023-12-04T15:09:23;100913.34;;;0.09;78.89
75401;BME280;63974;47.538;18.972;2023-12-04T15:12:29;100925.91;;;0.12;79.29
75401;BME280;63974;47.538;18.972;2023-12-04T15:15:52;100910.06;;;0.07;79.98
75401;BME280;63974;47.538;18.972;2023-12-04T15:19:13;100912.88;;;0.03;80.50
75401;BME280;63974;47.538;18.972;2023-12-04T15:22:35;100907.75;;;0.03;80.94
75401;BME280;63974;47.538;18.972;2023-12-04T15:25:39;100900.19;;;0.01;81.20
75401;BME280;63974;47.538;18.972;2023-12-04T15:28:44;100897.44;;;0.04;81.03
75401;BME280;63974;47.538;18.972;2023-12-04T15:31:49;100897.81;;;-0.02;81.87
75401;BME280;63974;47.538;18.972;2023-12-04T15:34:52;100894.34;;;-0.01;82.21
75401;BME280;63974;47.538;18.972;2023-12-04T15:37:55;100890.22;;;-0.03;82.12
75401;BME280;63974;47.538;18.972;2023-12-04T15:40:58;100893.78;;;-0.05;82.25
75401;BME280;63974;47.538;18.972;2023-12-04T15:44:03;100881.84;;;-0.05;81.73
75401;BME280;63974;47.538;18.972;2023-12-04T15:47:06;100858.00;;;-0.19;83.03
75401;BME280;63974;47.538;18.972;2023-12-04T15:50:09;100854.03;;;-0.09;82.44
75401;BME280;63974;47.538;18.972;2023-12-04T15:53:11;100844.00;;;-0.12;83.50
75401;BME280;63974;47.538;18.972;2023-12-04T15:56:14;100836.69;;;-0.18;83.85
75401;BME280;63974;47.538;18.972;2023-12-04T15:59:17;100836.69;;;-0.18;83.29
75401;BME280;63974;47.538;18.972;2023-12-04T16:02:19;100834.88;;;-0.16;84.12